sensor_id;sensor_type;location;lat;lon;timestamp;pressure;altitude;pressure_sealevel;temperature;humidity
21433;BME280;18592;49.708;10.900;2023-04-28T00:01:18;98590.09;;;17.31;41.35
21433;BME280;18592;49.708;10.900;2023-04-28T00:03:20;98590.38;;;17.30;41.33
21433;BME280;18592;49.708;10.900;2023-04-28T00:05:21;98583.75;;;17.31;41.31
21433;BME280;18592;49.708;10.900;2023-04-28T00:07:23;98581.81;;;17.31;41.47
21433;BME280;18592;49.708;10.900;2023-04-28T00:09:25;98583.47;;;17.32;41.65
21433;BME280;18592;49.708;10.900;2023-04-28T00:11:26;98582.66;;;17.32;41.54
21433;BME280;18592;49.708;10.900;2023-04-28T00:13:28;98578.78;;;17.33;41.54
21433;BME280;18592;49.708;10.900;2023-04-28T00:15:29;98575.72;;;17.34;41.96
21433;BME280;18592;49.708;10.900;2023-04-28T00:17:31;98583.69;;;17.36;41.57
21433;BME280;18592;49.708;10.900;2023-04-28T00:19:32;98574.31;;;17.37;41.67
21433;BME280;18592;49.708;10.900;2023-04-28T00:21:34;98570.47;;;17.38;41.75
21433;BME280;18592;49.708;10.900;2023-04-28T00:23:36;98566.88;;;17.37;41.76
21433;BME280;18592;49.708;10.900;2023-04-28T00:25:38;98562.97;;;17.38;41.65
21433;BME280;18592;49.708;10.900;2023-04-28T00:27:39;98561.06;;;17.39;41.78
21433;BME280;18592;49.708;10.900;2023-04-28T00:29:41;98566.28;;;17.40;41.89
21433;BME280;18592;49.708;10.900;2023-04-28T00:31:43;98557.19;;;17.40;41.84
21433;BME280;18592;49.708;10.900;2023-04-28T00:33:44;98551.38;;;17.41;41.81
21433;BME280;18592;49.708;10.900;2023-04-28T00:35:46;98546.16;;;17.40;42.05
21433;BME280;18592;49.708;10.900;2023-04-28T00:37:48;98545.34;;;17.39;41.68
21433;BME280;18592;49.708;10.900;2023-04-28T00:39:56;98545.34;;;17.39;41.65
21433;BME280;18592;49.708;10.900;2023-04-28T00:41:58;98546.44;;;17.38;41.91
21433;BME280;18592;49.708;10.900;2023-04-28T00:43:59;98543.69;;;17.38;41.95
21433;BME280;18592;49.708;10.900;2023-04-28T00:46:01;98539.00;;;17.39;41.80
21433;BME280;18592;49.708;10.900;2023-04-28T00:48:03;98539.00;;;17.39;41.99
21433;BME280;18592;49.708;10.900;2023-04-28T00:50:05;98537.09;;;17.39;41.95
21433;BME280;18592;49.708;10.900;2023-04-28T00:52:06;98542.59;;;17.39;42.16
21433;BME280;18592;49.708;10.900;2023-04-28T00:54:12;98535.16;;;17.40;41.96
21433;BME280;18592;49.708;10.900;2023-04-28T00:56:14;98535.16;;;17.40;41.85
21433;BME280;18592;49.708;10.900;2023-04-28T00:58:16;98524.13;;;17.40;42.33
21433;BME280;18592;49.708;10.900;2023-04-28T01:00:17;98524.13;;;17.40;42.47
21433;BME280;18592;49.708;10.900;2023-04-28T01:02:19;98526.88;;;17.40;42.24
21433;BME280;18592;49.708;10.900;2023-04-28T01:04:21;98510.03;;;17.41;42.17
21433;BME280;18592;49.708;10.900;2023-04-28T01:06:23;98517.22;;;17.42;42.28
21433;BME280;18592;49.708;10.900;2023-04-28T01:08:29;98503.44;;;17.42;42.29
21433;BME280;18592;49.708;10.900;2023-04-28T01:10:31;98513.31;;;17.43;42.20
21433;BME280;18592;49.708;10.900;2023-04-28T01:12:40;98504.78;;;17.45;42.42
21433;BME280;18592;49.708;10.900;2023-04-28T01:14:42;98494.56;;;17.45;42.19
21433;BME280;18592;49.708;10.900;2023-04-28T01:16:43;98507.53;;;17.45;42.27
21433;BME280;18592;49.708;10.900;2023-04-28T01:18:46;98497.00;;;17.47;42.48
21433;BME280;18592;49.708;10.900;2023-04-28T01:20:48;98497.84;;;17.47;42.38
21433;BME280;18592;49.708;10.900;2023-04-28T01:22:50;98494.78;;;17.49;42.59
21433;BME280;18592;49.708;10.900;2023-04-28T01:24:52;98496.94;;;17.52;42.65
21433;BME280;18592;49.708;10.900;2023-04-28T01:26:54;98498.63;;;17.53;42.56
21433;BME280;18592;49.708;10.900;2023-04-28T01:28:56;98493.63;;;17.55;42.45
21433;BME280;18592;49.708;10.900;2023-04-28T01:30:58;98487.28;;;17.54;42.68
21433;BME280;18592;49.708;10.900;2023-04-28T01:33:01;98486.97;;;17.56;42.59
21433;BME280;18592;49.708;10.900;2023-04-28T01:35:02;98491.38;;;17.57;42.48
21433;BME280;18592;49.708;10.900;2023-04-28T01:37:07;98485.88;;;17.57;42.50
21433;BME280;18592;49.708;10.900;2023-04-28T01:39:10;98488.31;;;17.58;42.60
21433;BME280;18592;49.708;10.900;2023-04-28T01:41:14;98487.53;;;17.58;42.76
21433;BME280;18592;49.708;10.900;2023-04-28T01:43:16;98490.81;;;17.60;42.61
21433;BME280;18592;49.708;10.900;2023-04-28T01:45:17;98488.03;;;17.60;42.59
21433;BME280;18592;49.708;10.900;2023-04-28T01:47:19;98474.25;;;17.60;42.56
21433;BME280;18592;49.708;10.900;2023-04-28T01:49:20;98471.50;;;17.60;42.59
21433;BME280;18592;49.708;10.900;2023-04-28T01:51:22;98478.63;;;17.61;42.57
21433;BME280;18592;49.708;10.900;2023-04-28T01:53:24;98479.78;;;17.60;42.63
21433;BME280;18592;49.708;10.900;2023-04-28T01:55:26;98475.09;;;17.60;42.45
21433;BME280;18592;49.708;10.900;2023-04-28T01:57:28;98473.13;;;17.61;42.58
21433;BME280;18592;49.708;10.900;2023-04-28T01:59:31;98473.44;;;17.59;42.53
21433;BME280;18592;49.708;10.900;2023-04-28T02:01:32;98470.69;;;17.59;42.55
21433;BME280;18592;49.708;10.900;2023-04-28T02:03:34;98478.63;;;17.61;42.56
21433;BME280;18592;49.708;10.900;2023-04-28T02:05:37;98470.38;;;17.61;42.71
21433;BME280;18592;49.708;10.900;2023-04-28T02:07:38;98460.16;;;17.61;42.71
21433;BME280;18592;49.708;10.900;2023-04-28T02:09:40;98462.66;;;17.63;42.86
21433;BME280;18592;49.708;10.900;2023-04-28T02:11:41;98464.25;;;17.64;42.82
21433;BME280;18592;49.708;10.900;2023-04-28T02:13:43;98462.34;;;17.64;42.87
21433;BME280;18592;49.708;10.900;2023-04-28T02:15:45;98452.97;;;17.65;42.95
21433;BME280;18592;49.708;10.900;2023-04-28T02:17:46;98451.00;;;17.66;42.81
21433;BME280;18592;49.708;10.900;2023-04-28T02:19:53;98456.50;;;17.66;43.13
21433;BME280;18592;49.708;10.900;2023-04-28T02:21:55;98453.47;;;17.67;42.90
21433;BME280;18592;49.708;10.900;2023-04-28T02:23:56;98465.00;;;17.69;43.00
21433;BME280;18592;49.708;10.900;2023-04-28T02:26:01;98463.09;;;17.70;42.70
21433;BME280;18592;49.708;10.900;2023-04-28T02:28:03;98460.00;;;17.71;42.97
21433;BME280;18592;49.708;10.900;2023-04-28T02:30:08;98455.31;;;17.72;42.78
21433;BME280;18592;49.708;10.900;2023-04-28T02:32:10;98454.22;;;17.73;42.70
21433;BME280;18592;49.708;10.900;2023-04-28T02:34:12;98455.84;;;17.74;42.72
21433;BME280;18592;49.708;10.900;2023-04-28T02:36:15;98453.06;;;17.74;42.86
21433;BME280;18592;49.708;10.900;2023-04-28T02:38:16;98457.47;;;17.75;42.84
21433;BME280;18592;49.708;10.900;2023-04-28T02:40:18;98455.56;;;17.75;42.76
21433;BME280;18592;49.708;10.900;2023-04-28T02:42:19;98448.06;;;17.76;42.88
21433;BME280;18592;49.708;10.900;2023-04-28T02:44:21;98456.06;;;17.77;43.06
21433;BME280;18592;49.708;10.900;2023-04-28T02:46:22;98457.41;;;17.80;43.01
21433;BME280;18592;49.708;10.900;2023-04-28T02:48:24;98453.50;;;17.81;43.10
21433;BME280;18592;49.708;10.900;2023-04-28T02:50:26;98443.31;;;17.82;43.11
21433;BME280;18592;49.708;10.900;2023-04-28T02:52:28;98443.81;;;17.84;43.10
21433;BME280;18592;49.708;10.900;2023-04-28T02:54:29;98437.50;;;17.83;43.09
21433;BME280;18592;49.708;10.900;2023-04-28T02:56:34;98436.88;;;17.86;42.97
21433;BME280;18592;49.708;10.900;2023-04-28T02:58:38;98429.44;;;17.87;43.02
21433;BME280;18592;49.708;10.900;2023-04-28T03:00:39;98426.41;;;17.88;43.03
21433;BME280;18592;49.708;10.900;2023-04-28T03:02:41;98427.19;;;17.89;42.92
21433;BME280;18592;49.708;10.900;2023-04-28T03:04:43;98429.66;;;17.90;43.02
21433;BME280;18592;49.708;10.900;2023-04-28T03:06:44;98418.63;;;17.90;43.10
21433;BME280;18592;49.708;10.900;2023-04-28T03:08:46;98411.69;;;17.93;43.02
21433;BME280;18592;49.708;10.900;2023-04-28T03:10:47;98418.03;;;17.93;43.04
21433;BME280;18592;49.708;10.900;2023-04-28T03:12:49;98408.63;;;17.94;43.23
21433;BME280;18592;49.708;10.900;2023-04-28T03:14:51;98405.84;;;17.94;43.17
21433;BME280;18592;49.708;10.900;2023-04-28T03:16:53;98402.81;;;17.96;43.05
21433;BME280;18592;49.708;10.900;2023-04-28T03:18:55;98389.53;;;17.98;43.13
21433;BME280;18592;49.708;10.900;2023-04-28T03:20:56;98404.16;;;17.98;43.22
21433;BME280;18592;49.708;10.900;2023-04-28T03:22:59;98397.50;;;17.99;43.12
21433;BME280;18592;49.708;10.900;2023-04-28T03:25:02;98389.72;;;18.01;42.83
21433;BME280;18592;49.708;10.900;2023-04-28T03:27:07;98390.56;;;18.02;43.05
21433;BME280;18592;49.708;10.900;2023-04-28T03:29:10;98388.63;;;18.02;43.19
21433;BME280;18592;49.708;10.900;2023-04-28T03:31:12;98381.16;;;18.03;43.06
21433;BME280;18592;49.708;10.900;2023-04-28T03:33:13;98393.03;;;18.03;43.11
21433;BME280;18592;49.708;10.900;2023-04-28T03:35:15;98380.84;;;18.04;43.18
21433;BME280;18592;49.708;10.900;2023-04-28T03:37:17;98372.28;;;18.06;43.11
21433;BME280;18592;49.708;10.900;2023-04-28T03:39:18;98375.06;;;18.06;43.05
21433;BME280;18592;49.708;10.900;2023-04-28T03:41:20;98361.25;;;18.06;42.94
21433;BME280;18592;49.708;10.900;2023-04-28T03:43:40;98366.78;;;18.06;43.07
21433;BME280;18592;49.708;10.900;2023-04-28T03:46:05;98384.66;;;18.08;43.01
21433;BME280;18592;49.708;10.900;2023-04-28T03:48:07;98387.41;;;18.08;43.06
21433;BME280;18592;49.708;10.900;2023-04-28T03:50:10;98384.66;;;18.08;43.07
21433;BME280;18592;49.708;10.900;2023-04-28T03:52:11;98376.91;;;18.10;43.00
21433;BME280;18592;49.708;10.900;2023-04-28T03:54:13;98376.06;;;18.10;42.95
21433;BME280;18592;49.708;10.900;2023-04-28T03:56:15;98369.72;;;18.09;42.88
21433;BME280;18592;49.708;10.900;2023-04-28T03:58:17;98368.63;;;18.10;42.86
21433;BME280;18592;49.708;10.900;2023-04-28T04:00:19;98372.47;;;18.09;42.90
21433;BME280;18592;49.708;10.900;2023-04-28T04:02:22;98365.03;;;18.10;43.17
21433;BME280;18592;49.708;10.900;2023-04-28T04:04:24;98368.63;;;18.10;43.16
21433;BME280;18592;49.708;10.900;2023-04-28T04:06:26;98370.25;;;18.11;43.15
21433;BME280;18592;49.708;10.900;2023-04-28T04:08:28;98373.03;;;18.11;43.28
21433;BME280;18592;49.708;10.900;2023-04-28T04:10:30;98356.47;;;18.11;43.04
21433;BME280;18592;49.708;10.900;2023-04-28T04:12:32;98356.97;;;18.13;43.23
21433;BME280;18592;49.708;10.900;2023-04-28T04:14:33;98368.00;;;18.13;43.17
21433;BME280;18592;49.708;10.900;2023-04-28T04:16:35;98375.16;;;18.14;43.01
21433;BME280;18592;49.708;10.900;2023-04-28T04:18:38;98373.22;;;18.15;43.14
21433;BME280;18592;49.708;10.900;2023-04-28T04:20:54;98367.69;;;18.15;43.09
21433;BME280;18592;49.708;10.900;2023-04-28T04:22:57;98365.75;;;18.15;42.97
21433;BME280;18592;49.708;10.900;2023-04-28T04:24:58;98372.94;;;18.16;43.11
21433;BME280;18592;49.708;10.900;2023-04-28T04:27:00;98363.50;;;18.17;43.13
21433;BME280;18592;49.708;10.900;2023-04-28T04:29:06;98361.56;;;18.18;43.33
21433;BME280;18592;49.708;10.900;2023-04-28T04:31:08;98364.84;;;18.20;43.46
21433;BME280;18592;49.708;10.900;2023-04-28T04:33:09;98350.75;;;18.21;43.21
21433;BME280;18592;49.708;10.900;2023-04-28T04:35:11;98357.91;;;18.22;43.32
21433;BME280;18592;49.708;10.900;2023-04-28T04:37:13;98367.00;;;18.23;43.37
21433;BME280;18592;49.708;10.900;2023-04-28T04:39:21;98363.91;;;18.24;43.25
21433;BME280;18592;49.708;10.900;2023-04-28T04:41:22;98364.47;;;18.26;43.29
21433;BME280;18592;49.708;10.900;2023-04-28T04:43:32;98362.50;;;18.27;43.36
21433;BME280;18592;49.708;10.900;2023-04-28T04:45:34;98363.31;;;18.27;43.11
21433;BME280;18592;49.708;10.900;2023-04-28T04:47:36;98364.66;;;18.30;43.39
21433;BME280;18592;49.708;10.900;2023-04-28T04:49:37;98351.66;;;18.30;43.45
21433;BME280;18592;49.708;10.900;2023-04-28T04:51:39;98356.38;;;18.30;43.26
21433;BME280;18592;49.708;10.900;2023-04-28T04:53:41;98362.38;;;18.32;43.21
21433;BME280;18592;49.708;10.900;2023-04-28T04:55:43;98358.53;;;18.33;43.39
21433;BME280;18592;49.708;10.900;2023-04-28T04:57:44;98353.50;;;18.35;43.22
21433;BME280;18592;49.708;10.900;2023-04-28T04:59:55;98367.00;;;18.36;43.11
21433;BME280;18592;49.708;10.900;2023-04-28T05:01:57;98363.94;;;18.38;43.43
21433;BME280;18592;49.708;10.900;2023-04-28T05:03:59;98365.88;;;18.37;43.32
21433;BME280;18592;49.708;10.900;2023-04-28T05:06:01;98359.25;;;18.38;43.30
21433;BME280;18592;49.708;10.900;2023-04-28T05:08:12;98371.63;;;18.41;43.47
21433;BME280;18592;49.708;10.900;2023-04-28T05:10:39;98368.03;;;18.40;43.39
21433;BME280;18592;49.708;10.900;2023-04-28T05:12:47;98366.09;;;18.41;43.37
21433;BME280;18592;49.708;10.900;2023-04-28T05:16:10;98368.03;;;18.40;43.21
21433;BME280;18592;49.708;10.900;2023-04-28T05:18:43;98359.75;;;18.40;43.22
21433;BME280;18592;49.708;10.900;2023-04-28T05:23:36;98362.19;;;18.42;43.30
21433;BME280;18592;49.708;10.900;2023-04-28T05:25:47;98364.66;;;18.44;43.19
21433;BME280;18592;49.708;10.900;2023-04-28T05:31:04;98356.16;;;18.40;43.27
21433;BME280;18592;49.708;10.900;2023-04-28T05:33:24;98369.69;;;18.42;42.98
21433;BME280;18592;49.708;10.900;2023-04-28T05:35:26;98356.38;;;18.44;43.11
21433;BME280;18592;49.708;10.900;2023-04-28T05:37:28;98356.38;;;18.44;43.14
21433;BME280;18592;49.708;10.900;2023-04-28T05:39:43;98346.97;;;18.45;43.20
21433;BME280;18592;49.708;10.900;2023-04-28T05:41:51;98355.25;;;18.45;43.26
21433;BME280;18592;49.708;10.900;2023-04-28T05:43:53;98351.06;;;18.47;43.48
21433;BME280;18592;49.708;10.900;2023-04-28T05:45:55;98361.81;;;18.49;43.13
21433;BME280;18592;49.708;10.900;2023-04-28T05:47:56;98351.63;;;18.49;43.23
21433;BME280;18592;49.708;10.900;2023-04-28T05:49:58;98354.38;;;18.49;43.12
21433;BME280;18592;49.708;10.900;2023-04-28T05:52:00;98350.78;;;18.49;43.25
21433;BME280;18592;49.708;10.900;2023-04-28T05:54:02;98348.84;;;18.49;43.05
21433;BME280;18592;49.708;10.900;2023-04-28T05:56:06;98346.88;;;18.50;43.36
21433;BME280;18592;49.708;10.900;2023-04-28T05:58:08;98344.66;;;18.52;43.29
21433;BME280;18592;49.708;10.900;2023-04-28T06:00:12;98344.94;;;18.50;43.16
21433;BME280;18592;49.708;10.900;2023-04-28T06:02:13;98339.44;;;18.50;42.96
21433;BME280;18592;49.708;10.900;2023-04-28T06:04:15;98341.38;;;18.50;42.91
21433;BME280;18592;49.708;10.900;2023-04-28T06:06:18;98344.94;;;18.50;43.27
21433;BME280;18592;49.708;10.900;2023-04-28T06:08:20;98341.91;;;18.52;43.14
21433;BME280;18592;49.708;10.900;2023-04-28T06:10:22;98352.63;;;18.53;43.28
21433;BME280;18592;49.708;10.900;2023-04-28T06:12:23;98349.03;;;18.53;43.28
21433;BME280;18592;49.708;10.900;2023-04-28T06:14:25;98351.50;;;18.54;43.42
21433;BME280;18592;49.708;10.900;2023-04-28T06:16:27;98346.78;;;18.55;43.24
21433;BME280;18592;49.708;10.900;2023-04-28T06:18:29;98344.84;;;18.55;43.27
21433;BME280;18592;49.708;10.900;2023-04-28T06:20:34;98355.38;;;18.53;43.30
21433;BME280;18592;49.708;10.900;2023-04-28T06:22:37;98351.50;;;18.54;43.23
21433;BME280;18592;49.708;10.900;2023-04-28T06:24:40;98353.44;;;18.54;42.86
21433;BME280;18592;49.708;10.900;2023-04-28T06:26:44;98349.03;;;18.53;43.31
21433;BME280;18592;49.708;10.900;2023-04-28T06:28:46;98345.44;;;18.52;43.30
21433;BME280;18592;49.708;10.900;2023-04-28T06:30:48;98346.59;;;18.51;43.20
21433;BME280;18592;49.708;10.900;2023-04-28T06:32:49;98344.13;;;18.50;43.29
21433;BME280;18592;49.708;10.900;2023-04-28T06:34:52;98348.03;;;18.49;43.13
21433;BME280;18592;49.708;10.900;2023-04-28T06:36:54;98346.38;;;18.48;43.37
21433;BME280;18592;49.708;10.900;2023-04-28T06:38:56;98353.31;;;18.45;43.34
21433;BME280;18592;49.708;10.900;2023-04-28T06:40:59;98344.75;;;18.47;43.35
21433;BME280;18592;49.708;10.900;2023-04-28T06:43:02;98347.78;;;18.45;43.42
21433;BME280;18592;49.708;10.900;2023-04-28T06:45:09;98336.47;;;18.47;43.50
21433;BME280;18592;49.708;10.900;2023-04-28T06:47:11;98324.88;;;18.45;43.48
21433;BME280;18592;49.708;10.900;2023-04-28T06:49:13;98325.94;;;18.49;43.70
21433;BME280;18592;49.708;10.900;2023-04-28T06:51:15;98327.06;;;18.48;43.57
21433;BME280;18592;49.708;10.900;2023-04-28T06:53:17;98333.41;;;18.48;43.79
21433;BME280;18592;49.708;10.900;2023-04-28T06:55:18;98330.31;;;18.50;43.65
21433;BME280;18592;49.708;10.900;2023-04-28T06:57:20;98331.16;;;18.50;43.66
21433;BME280;18592;49.708;10.900;2023-04-28T06:59:22;98323.69;;;18.51;43.75
21433;BME280;18592;49.708;10.900;2023-04-28T07:01:24;98320.59;;;18.52;43.77
21433;BME280;18592;49.708;10.900;2023-04-28T07:03:26;98319.00;;;18.51;43.63
21433;BME280;18592;49.708;10.900;2023-04-28T07:05:28;98315.09;;;18.52;43.67
21433;BME280;18592;49.708;10.900;2023-04-28T07:07:30;98315.09;;;18.52;43.56
21433;BME280;18592;49.708;10.900;2023-04-28T07:09:31;98319.00;;;18.51;43.87
21433;BME280;18592;49.708;10.900;2023-04-28T07:11:32;98326.44;;;18.51;43.79
21433;BME280;18592;49.708;10.900;2023-04-28T07:13:34;98331.66;;;18.52;43.74
21433;BME280;18592;49.708;10.900;2023-04-28T07:15:35;98326.44;;;18.51;43.86
21433;BME280;18592;49.708;10.900;2023-04-28T07:17:37;98328.38;;;18.50;43.84
21433;BME280;18592;49.708;10.900;2023-04-28T07:19:39;98323.19;;;18.49;43.81
21433;BME280;18592;49.708;10.900;2023-04-28T07:21:41;98332.28;;;18.49;43.99
21433;BME280;18592;49.708;10.900;2023-04-28T07:23:42;98328.72;;;18.49;43.78
21433;BME280;18592;49.708;10.900;2023-04-28T07:25:44;98336.16;;;18.48;43.69
21433;BME280;18592;49.708;10.900;2023-04-28T07:27:46;98345.56;;;18.47;44.05
21433;BME280;18592;49.708;10.900;2023-04-28T07:29:48;98346.38;;;18.48;43.73
21433;BME280;18592;49.708;10.900;2023-04-28T07:31:49;98342.00;;;18.47;44.16
21433;BME280;18592;49.708;10.900;2023-04-28T07:33:51;98344.19;;;18.45;43.91
21433;BME280;18592;49.708;10.900;2023-04-28T07:35:52;98337.16;;;18.38;43.91
21433;BME280;18592;49.708;10.900;2023-04-28T07:37:54;98341.03;;;18.37;44.02
21433;BME280;18592;49.708;10.900;2023-04-28T07:39:56;98342.47;;;18.35;43.73
21433;BME280;18592;49.708;10.900;2023-04-28T07:41:57;98337.25;;;18.33;43.78
21433;BME280;18592;49.708;10.900;2023-04-28T07:43:59;98343.91;;;18.32;43.83
21433;BME280;18592;49.708;10.900;2023-04-28T07:46:00;98353.59;;;18.30;44.12
21433;BME280;18592;49.708;10.900;2023-04-28T07:48:02;98359.44;;;18.28;44.09
21433;BME280;18592;49.708;10.900;2023-04-28T07:50:04;98361.69;;;18.26;44.13
21433;BME280;18592;49.708;10.900;2023-04-28T07:52:07;98366.69;;;18.24;44.10
21433;BME280;18592;49.708;10.900;2023-04-28T07:54:10;98373.34;;;18.23;44.33
21433;BME280;18592;49.708;10.900;2023-04-28T07:56:11;98373.13;;;18.20;44.49
21433;BME280;18592;49.708;10.900;2023-04-28T07:58:13;98367.91;;;18.18;44.48
21433;BME280;18592;49.708;10.900;2023-04-28T08:00:15;98379.78;;;18.19;44.58
21433;BME280;18592;49.708;10.900;2023-04-28T08:02:18;98367.41;;;18.16;44.55
21433;BME280;18592;49.708;10.900;2023-04-28T08:04:20;98371.28;;;18.15;44.33
21433;BME280;18592;49.708;10.900;2023-04-28T08:06:23;98372.38;;;18.14;44.41
21433;BME280;18592;49.708;10.900;2023-04-28T08:08:24;98366.69;;;18.11;44.54
21433;BME280;18592;49.708;10.900;2023-04-28T08:10:27;98362.78;;;18.12;44.62
21433;BME280;18592;49.708;10.900;2023-04-28T08:12:28;98367.50;;;18.11;44.72
21433;BME280;18592;49.708;10.900;2023-04-28T08:14:30;98354.31;;;18.08;44.83
21433;BME280;18592;49.708;10.900;2023-04-28T08:16:32;98351.03;;;18.06;44.86
21433;BME280;18592;49.708;10.900;2023-04-28T08:18:34;98346.13;;;18.03;44.58
21433;BME280;18592;49.708;10.900;2023-04-28T08:20:36;98350.00;;;18.02;44.82
21433;BME280;18592;49.708;10.900;2023-04-28T08:22:37;98353.09;;;18.01;44.87
21433;BME280;18592;49.708;10.900;2023-04-28T08:24:39;98341.81;;;17.97;45.05
21433;BME280;18592;49.708;10.900;2023-04-28T08:26:40;98341.59;;;17.94;45.01
21433;BME280;18592;49.708;10.900;2023-04-28T08:28:42;98338.34;;;17.92;45.04
21433;BME280;18592;49.708;10.900;2023-04-28T08:30:44;98328.72;;;17.89;45.01
21433;BME280;18592;49.708;10.900;2023-04-28T08:32:46;98327.41;;;17.87;44.89
21433;BME280;18592;49.708;10.900;2023-04-28T08:34:48;98313.94;;;17.85;45.14
21433;BME280;18592;49.708;10.900;2023-04-28T08:36:50;98315.34;;;17.83;45.31
21433;BME280;18592;49.708;10.900;2023-04-28T08:38:52;98310.94;;;17.82;45.18
21433;BME280;18592;49.708;10.900;2023-04-28T08:40:53;98315.13;;;17.79;45.48
21433;BME280;18592;49.708;10.900;2023-04-28T08:42:55;98309.94;;;17.77;45.41
21433;BME280;18592;49.708;10.900;2023-04-28T08:44:57;98313.78;;;17.76;45.46
21433;BME280;18592;49.708;10.900;2023-04-28T08:47:01;98305.84;;;17.75;45.45
21433;BME280;18592;49.708;10.900;2023-04-28T08:49:05;98315.72;;;17.76;45.58
21433;BME280;18592;49.708;10.900;2023-04-28T08:51:06;98313.78;;;17.76;45.69
21433;BME280;18592;49.708;10.900;2023-04-28T08:53:10;98311.03;;;17.76;45.78
21433;BME280;18592;49.708;10.900;2023-04-28T08:55:13;98314.63;;;17.77;45.70
21433;BME280;18592;49.708;10.900;2023-04-28T08:57:16;98318.19;;;17.77;45.93
21433;BME280;18592;49.708;10.900;2023-04-28T08:59:19;98325.34;;;17.78;45.85
21433;BME280;18592;49.708;10.900;2023-04-28T09:01:21;98320.66;;;17.79;45.84
21433;BME280;18592;49.708;10.900;2023-04-28T09:03:25;98332.50;;;17.80;45.86
21433;BME280;18592;49.708;10.900;2023-04-28T09:05:27;98349.03;;;17.80;45.82
21433;BME280;18592;49.708;10.900;2023-04-28T09:07:29;98340.78;;;17.80;45.99
21433;BME280;18592;49.708;10.900;2023-04-28T09:09:30;98329.41;;;17.81;46.05
21433;BME280;18592;49.708;10.900;2023-04-28T09:11:49;98331.66;;;17.79;46.59
21433;BME280;18592;49.708;10.900;2023-04-28T09:13:51;98328.91;;;17.79;45.95
21433;BME280;18592;49.708;10.900;2023-04-28T09:15:58;98313.19;;;17.80;46.17
21433;BME280;18592;49.708;10.900;2023-04-28T09:18:02;98308.50;;;17.80;46.12
21433;BME280;18592;49.708;10.900;2023-04-28T09:20:18;98309.34;;;17.81;46.25
21433;BME280;18592;49.708;10.900;2023-04-28T09:22:26;98311.78;;;17.82;46.37
21433;BME280;18592;49.708;10.900;2023-04-28T09:26:47;98318.41;;;17.81;46.47
21433;BME280;18592;49.708;10.900;2023-04-28T09:28:50;98323.63;;;17.83;46.54
21433;BME280;18592;49.708;10.900;2023-04-28T09:30:53;98311.44;;;17.84;46.28
21433;BME280;18592;49.708;10.900;2023-04-28T09:33:04;98315.03;;;17.84;46.75
21433;BME280;18592;49.708;10.900;2023-04-28T09:35:09;98321.06;;;17.86;46.29
21433;BME280;18592;49.708;10.900;2023-04-28T09:37:17;98321.06;;;17.86;46.18
21433;BME280;18592;49.708;10.900;2023-04-28T09:39:34;98306.16;;;17.87;46.64
21433;BME280;18592;49.708;10.900;2023-04-28T09:41:43;98299.53;;;17.88;46.49
21433;BME280;18592;49.708;10.900;2023-04-28T09:43:45;98295.94;;;17.88;46.03
21433;BME280;18592;49.708;10.900;2023-04-28T09:45:47;98305.34;;;17.87;46.35
21433;BME280;18592;49.708;10.900;2023-04-28T09:47:49;98314.94;;;17.89;46.20
21433;BME280;18592;49.708;10.900;2023-04-28T09:49:58;98316.88;;;17.89;46.50
21433;BME280;18592;49.708;10.900;2023-04-28T09:52:11;98303.63;;;17.91;46.36
21433;BME280;18592;49.708;10.900;2023-04-28T09:54:14;98296.16;;;17.91;46.33
21433;BME280;18592;49.708;10.900;2023-04-28T09:56:16;98284.00;;;17.92;46.50
21433;BME280;18592;49.708;10.900;2023-04-28T09:58:23;98280.94;;;17.94;46.54
21433;BME280;18592;49.708;10.900;2023-04-28T10:00:25;98277.06;;;17.95;46.62
21433;BME280;18592;49.708;10.900;2023-04-28T10:02:27;98274.81;;;17.97;46.44
21433;BME280;18592;49.708;10.900;2023-04-28T10:04:33;98268.19;;;17.98;46.78
21433;BME280;18592;49.708;10.900;2023-04-28T10:06:35;98266.25;;;17.98;46.81
21433;BME280;18592;49.708;10.900;2023-04-28T10:08:38;98261.00;;;17.97;46.75
21433;BME280;18592;49.708;10.900;2023-04-28T10:10:40;98267.03;;;17.99;46.68
21433;BME280;18592;49.708;10.900;2023-04-28T10:12:44;98273.69;;;17.98;46.63
21433;BME280;18592;49.708;10.900;2023-04-28T10:14:47;98260.19;;;17.96;46.88
21433;BME280;18592;49.708;10.900;2023-04-28T10:16:55;98263.78;;;17.97;46.48
21433;BME280;18592;49.708;10.900;2023-04-28T10:18:57;98275.13;;;17.95;46.95
21433;BME280;18592;49.708;10.900;2023-04-28T10:21:03;98273.47;;;17.94;46.66
21433;BME280;18592;49.708;10.900;2023-04-28T10:25:28;98273.56;;;17.89;46.68
21433;BME280;18592;49.708;10.900;2023-04-28T10:27:33;98269.19;;;17.88;46.42
21433;BME280;18592;49.708;10.900;2023-04-28T10:29:36;98259.59;;;17.86;46.66
21433;BME280;18592;49.708;10.900;2023-04-28T10:31:37;98272.25;;;17.87;46.60
21433;BME280;18592;49.708;10.900;2023-04-28T10:33:40;98276.44;;;17.84;46.79
21433;BME280;18592;49.708;10.900;2023-04-28T10:35:45;98277.25;;;17.85;46.72
21433;BME280;18592;49.708;10.900;2023-04-28T10:38:04;98265.41;;;17.84;47.20
21433;BME280;18592;49.708;10.900;2023-04-28T10:40:31;98259.88;;;17.84;47.00
21433;BME280;18592;49.708;10.900;2023-04-28T10:42:55;98254.97;;;17.81;46.98
21433;BME280;18592;49.708;10.900;2023-04-28T10:44:57;98253.88;;;17.82;47.11
21433;BME280;18592;49.708;10.900;2023-04-28T10:47:08;98261.63;;;17.80;47.05
21433;BME280;18592;49.708;10.900;2023-04-28T10:49:11;98258.06;;;17.80;47.25
21433;BME280;18592;49.708;10.900;2023-04-28T10:53:16;98268.56;;;17.77;47.56
21433;BME280;18592;49.708;10.900;2023-04-28T10:57:39;98273.34;;;17.72;47.49
21433;BME280;18592;49.708;10.900;2023-04-28T10:59:43;98275.59;;;17.70;47.49
21433;BME280;18592;49.708;10.900;2023-04-28T11:01:44;98278.16;;;17.66;47.69